createdAt,value
2018-09-24T00:00:30.439Z,17.13
2018-09-24T00:03:05.712Z,9.03
2018-09-24T00:05:41.942Z,13.00
2018-09-24T00:08:17.509Z,16.47
2018-09-24T00:10:52.776Z,14.13
2018-09-24T00:13:29.029Z,17.67
2018-09-24T00:16:04.806Z,14.80
2018-09-24T00:18:40.913Z,17.73
2018-09-24T00:21:17.000Z,9.17
2018-09-24T00:23:52.454Z,10.97
2018-09-24T00:26:28.194Z,13.23
2018-09-24T00:29:03.961Z,13.23
2018-09-24T00:31:39.184Z,10.97
2018-09-24T00:34:17.872Z,15.63
2018-09-24T00:37:02.197Z,21.80
2018-09-24T00:39:37.867Z,13.30
2018-09-24T00:42:12.812Z,13.37
2018-09-24T00:44:48.625Z,15.77
2018-09-24T00:47:23.861Z,19.50
2018-09-24T00:49:59.797Z,16.33
2018-09-24T00:52:36.142Z,15.17
2018-09-24T00:55:12.124Z,14.80
2018-09-24T00:57:47.822Z,11.87
2018-09-24T01:00:23.320Z,13.13
2018-09-24T01:02:58.581Z,17.83
2018-09-24T01:05:34.253Z,12.00
2018-09-24T01:08:10.585Z,13.40
2018-09-24T01:10:46.415Z,13.80
2018-09-24T01:13:22.153Z,19.47
2018-09-24T01:15:57.702Z,14.13
2018-09-24T01:18:33.121Z,14.90
2018-09-24T01:21:08.773Z,11.80
2018-09-24T01:23:44.853Z,11.23
2018-09-24T01:26:20.355Z,17.33
2018-09-24T01:28:56.048Z,15.10
2018-09-24T01:31:31.729Z,15.33
2018-09-24T01:34:07.869Z,10.87
2018-09-24T01:36:44.413Z,20.87
2018-09-24T01:39:20.288Z,16.33
2018-09-24T01:41:55.401Z,14.17
2018-09-24T01:44:31.366Z,13.17
2018-09-24T01:47:09.248Z,14.57
2018-09-24T01:49:44.178Z,15.00
2018-09-24T01:52:19.876Z,11.77
2018-09-24T01:54:55.400Z,20.23
2018-09-24T01:57:32.048Z,14.00
2018-09-24T02:00:07.995Z,13.63
2018-09-24T02:02:43.696Z,14.00
2018-09-24T02:05:19.553Z,16.33
2018-09-24T02:07:55.274Z,14.07
2018-09-24T02:10:33.070Z,16.30
2018-09-24T02:13:10.140Z,15.33
2018-09-24T02:15:46.981Z,14.40
2018-09-24T02:18:22.782Z,16.60
2018-09-24T02:20:59.228Z,11.87
2018-09-24T02:23:35.176Z,14.23
2018-09-24T02:26:10.442Z,14.57
2018-09-24T02:28:46.659Z,11.33
2018-09-24T02:31:22.925Z,13.57
2018-09-24T02:33:58.517Z,16.23
2018-09-24T02:36:37.126Z,12.43
2018-09-24T02:39:12.946Z,14.37
2018-09-24T02:41:48.959Z,13.30
2018-09-24T02:44:24.972Z,14.03
2018-09-24T02:47:00.567Z,13.97
2018-09-24T02:49:35.799Z,18.80
2018-09-24T02:52:11.354Z,14.73
2018-09-24T02:54:46.974Z,16.37
2018-09-24T02:57:22.969Z,14.60
2018-09-24T02:59:59.358Z,17.80
2018-09-24T03:02:35.169Z,14.87
2018-09-24T03:05:10.523Z,13.13
2018-09-24T03:07:46.905Z,10.23
2018-09-24T03:10:24.024Z,15.77
2018-09-24T03:12:59.829Z,12.17
2018-09-24T03:15:36.122Z,10.53
2018-09-24T03:18:12.097Z,11.80
2018-09-24T03:20:47.756Z,10.67
2018-09-24T03:23:23.940Z,13.50
2018-09-24T03:25:59.816Z,13.13
2018-09-24T03:28:35.466Z,11.83
2018-09-24T03:31:10.609Z,13.00
2018-09-24T03:33:46.228Z,15.93
2018-09-24T03:36:22.381Z,13.00
2018-09-24T03:38:58.291Z,12.43
2018-09-24T03:41:33.378Z,12.50
2018-09-24T03:44:09.778Z,13.43
2018-09-24T03:46:45.353Z,12.70
2018-09-24T03:49:20.333Z,16.83
2018-09-24T03:51:56.649Z,17.17
2018-09-24T03:54:33.210Z,15.70
2018-09-24T03:57:08.449Z,16.53
2018-09-24T03:59:44.473Z,22.27
2018-09-24T04:02:20.173Z,17.10
2018-09-24T04:05:00.818Z,13.37
2018-09-24T04:07:41.567Z,13.40
2018-09-24T04:10:22.049Z,14.27
2018-09-24T04:13:02.240Z,15.70
2018-09-24T04:15:42.978Z,14.20
2018-09-24T04:18:23.606Z,14.07
2018-09-24T04:21:04.248Z,16.80
2018-09-24T04:23:44.970Z,16.63
2018-09-24T04:26:25.600Z,20.00
2018-09-24T04:29:05.913Z,16.50
2018-09-24T04:31:46.213Z,16.87
2018-09-24T04:34:27.857Z,15.80
2018-09-24T04:37:08.381Z,16.03
2018-09-24T04:39:49.415Z,16.30
2018-09-24T04:42:30.567Z,24.13
2018-09-24T04:45:10.928Z,18.23
2018-09-24T04:47:51.864Z,18.37
2018-09-24T04:50:32.185Z,18.50
2018-09-24T04:53:13.215Z,17.17
2018-09-24T04:55:53.282Z,15.77
2018-09-24T04:58:33.706Z,18.07
2018-09-24T05:01:14.897Z,14.40
2018-09-24T05:03:56.336Z,19.33
2018-09-24T05:06:37.053Z,18.33
2018-09-24T05:09:18.251Z,25.77
2018-09-24T05:11:58.896Z,20.60
2018-09-24T05:14:39.488Z,20.87
2018-09-24T05:17:19.848Z,23.73
2018-09-24T05:20:01.132Z,15.97
2018-09-24T05:22:42.299Z,22.10
2018-09-24T05:25:22.500Z,29.23
2018-09-24T05:28:03.146Z,19.23
2018-09-24T05:30:43.776Z,26.13
2018-09-24T05:33:24.778Z,21.73
2018-09-24T05:36:06.221Z,23.27
2018-09-24T05:38:47.444Z,18.70
2018-09-24T05:41:27.644Z,22.17
2018-09-24T05:44:08.789Z,20.90
2018-09-24T05:46:49.780Z,20.80
2018-09-24T05:49:29.774Z,19.20
2018-09-24T05:52:10.901Z,18.40
2018-09-24T05:54:57.902Z,27.40
2018-09-24T05:57:38.175Z,21.87
2018-09-24T06:00:19.143Z,23.53
2018-09-24T06:02:59.712Z,24.07
2018-09-24T06:05:40.502Z,25.17
2018-09-24T06:08:21.391Z,25.07
2018-09-24T06:11:02.365Z,33.03
2018-09-24T06:13:42.703Z,22.27
2018-09-24T06:16:23.617Z,27.97
2018-09-24T06:19:04.502Z,22.03
2018-09-24T06:21:45.299Z,25.53
2018-09-24T06:24:26.688Z,28.53
2018-09-24T06:27:07.449Z,22.27
2018-09-24T06:29:48.722Z,23.03
2018-09-24T06:32:28.896Z,23.00
2018-09-24T06:35:09.369Z,26.30
2018-09-24T06:37:50.397Z,20.67
2018-09-24T06:40:30.580Z,25.80
2018-09-24T06:43:11.022Z,30.33
2018-09-24T06:45:52.319Z,19.70
2018-09-24T06:48:32.998Z,28.90
2018-09-24T06:51:14.052Z,26.17
2018-09-24T06:53:54.168Z,30.90
2018-09-24T06:56:34.961Z,23.10
2018-09-24T06:59:15.500Z,26.27
2018-09-24T07:02:03.236Z,21.63
2018-09-24T07:04:43.583Z,29.70
2018-09-24T07:07:25.004Z,24.87
2018-09-24T07:10:05.114Z,24.53
2018-09-24T07:12:45.711Z,21.47
2018-09-24T07:15:25.848Z,19.70
2018-09-24T07:18:06.606Z,22.73
2018-09-24T07:20:47.361Z,24.13
2018-09-24T07:23:28.520Z,27.60
2018-09-24T07:26:09.288Z,19.43
2018-09-24T07:28:49.688Z,21.30
2018-09-24T07:31:30.253Z,24.97
2018-09-24T07:34:10.820Z,21.70
2018-09-24T07:36:50.758Z,27.10
2018-09-24T07:39:31.651Z,24.03
2018-09-24T07:42:11.927Z,24.97
2018-09-24T07:44:52.649Z,25.00
2018-09-24T07:47:33.576Z,34.30
2018-09-24T07:50:14.965Z,19.80
2018-09-24T07:52:55.192Z,20.47
2018-09-24T07:55:35.760Z,13.73
2018-09-24T07:58:16.108Z,16.70
2018-09-24T08:00:57.016Z,15.83
2018-09-24T08:03:37.972Z,18.20
2018-09-24T08:06:18.571Z,16.03
2018-09-24T08:08:59.596Z,18.60
2018-09-24T08:11:40.184Z,13.07
2018-09-24T08:14:21.091Z,10.33
2018-09-24T08:17:01.998Z,12.40
2018-09-24T08:19:43.019Z,7.97
2018-09-24T08:22:23.749Z,10.23
2018-09-24T08:25:04.029Z,12.87
2018-09-24T08:27:44.717Z,10.53
2018-09-24T08:30:25.060Z,7.93
2018-09-24T08:33:05.942Z,10.57
2018-09-24T08:35:46.240Z,12.63
2018-09-24T08:38:27.013Z,6.90
2018-09-24T08:41:07.152Z,10.30
2018-09-24T08:43:48.244Z,6.23
2018-09-24T08:46:28.392Z,9.50
2018-09-24T08:49:09.590Z,5.13
2018-09-24T08:51:49.991Z,8.70
2018-09-24T08:54:30.691Z,6.03
2018-09-24T08:57:10.835Z,7.10
2018-09-24T08:59:52.313Z,6.50
2018-09-24T09:02:33.542Z,8.97
2018-09-24T09:05:14.773Z,11.77
2018-09-24T09:07:55.335Z,5.47
2018-09-24T09:10:36.097Z,5.90
2018-09-24T09:13:15.956Z,5.80
2018-09-24T09:15:56.929Z,7.57
2018-09-24T09:18:37.599Z,6.30
2018-09-24T09:21:18.212Z,8.90
2018-09-24T09:23:59.049Z,8.53
2018-09-24T09:26:40.236Z,12.90
2018-09-24T09:29:20.960Z,8.00
2018-09-24T09:32:02.310Z,12.63
2018-09-24T09:34:42.840Z,11.97
2018-09-24T09:37:23.448Z,7.70
2018-09-24T09:40:03.862Z,7.70
2018-09-24T09:42:44.737Z,9.97
2018-09-24T09:45:25.125Z,8.80
2018-09-24T09:48:06.914Z,9.17
2018-09-24T09:50:48.120Z,7.27
2018-09-24T09:53:29.290Z,8.67
2018-09-24T09:56:10.951Z,6.00
2018-09-24T09:58:51.842Z,7.10
2018-09-24T10:01:33.059Z,9.40
2018-09-24T10:04:14.000Z,9.93
2018-09-24T10:06:54.735Z,12.57
2018-09-24T10:09:35.724Z,9.13
2018-09-24T10:12:16.881Z,6.00
2018-09-24T10:14:58.537Z,8.13
2018-09-24T10:17:39.650Z,7.27
2018-09-24T10:20:20.379Z,10.57
2018-09-24T10:23:01.187Z,7.50
2018-09-24T10:25:42.529Z,7.17
2018-09-24T10:28:22.872Z,13.17
2018-09-24T10:31:03.526Z,8.23
2018-09-24T10:33:43.988Z,10.57
2018-09-24T10:36:24.453Z,14.00
2018-09-24T10:39:05.483Z,4.50
2018-09-24T10:41:46.217Z,13.27
2018-09-24T10:44:26.990Z,5.97
2018-09-24T10:47:07.027Z,5.43
2018-09-24T10:49:48.183Z,3.53
2018-09-24T10:52:29.514Z,3.87
2018-09-24T10:55:09.467Z,4.97
2018-09-24T10:57:50.354Z,6.70
2018-09-24T11:00:30.388Z,4.33
2018-09-24T11:03:10.889Z,4.53
2018-09-24T11:05:51.957Z,3.73
2018-09-24T11:08:32.717Z,3.63
2018-09-24T11:11:13.119Z,3.40
2018-09-24T11:13:53.356Z,4.70
2018-09-24T11:16:34.524Z,6.53
2018-09-24T11:19:15.000Z,4.57
2018-09-24T11:21:55.282Z,3.83
2018-09-24T11:24:36.657Z,5.40
2018-09-24T11:27:17.666Z,4.10
2018-09-24T11:29:58.563Z,6.30
2018-09-24T11:32:38.983Z,4.70
2018-09-24T11:35:19.020Z,7.80
2018-09-24T11:38:00.397Z,4.20
2018-09-24T11:40:40.757Z,5.57
2018-09-24T11:43:20.921Z,3.43
2018-09-24T11:46:01.667Z,9.20
2018-09-24T11:48:42.707Z,6.90
2018-09-24T11:51:23.808Z,13.03
2018-09-24T11:54:05.709Z,5.93
2018-09-24T11:56:45.644Z,8.53
2018-09-24T11:59:26.697Z,7.53
2018-09-24T12:02:07.085Z,10.30
2018-09-24T12:04:47.862Z,7.90
2018-09-24T12:07:28.089Z,7.63
2018-09-24T12:10:08.757Z,5.33
2018-09-24T12:12:49.505Z,6.83
2018-09-24T12:15:29.956Z,5.10
2018-09-24T12:18:10.634Z,4.57
2018-09-24T12:20:51.725Z,8.83
2018-09-24T12:23:32.556Z,6.53
2018-09-24T12:26:12.773Z,12.53
2018-09-24T12:28:53.708Z,9.63
2018-09-24T12:31:36.429Z,10.20
2018-09-24T12:34:20.945Z,15.20
2018-09-24T12:37:08.798Z,7.80
2018-09-24T12:39:50.686Z,12.40
2018-09-24T12:42:31.496Z,9.60
2018-09-24T12:45:12.071Z,8.87
2018-09-24T12:47:52.470Z,6.07
2018-09-24T12:50:32.924Z,10.80
2018-09-24T12:53:13.800Z,13.10
2018-09-24T12:55:55.165Z,10.23
2018-09-24T12:58:36.037Z,8.33
2018-09-24T13:01:22.675Z,6.73
2018-09-24T13:04:03.065Z,15.10
2018-09-24T13:06:43.812Z,7.43
2018-09-24T13:09:24.064Z,10.37
2018-09-24T13:12:05.244Z,7.90
2018-09-24T13:14:46.956Z,12.23
2018-09-24T13:17:27.110Z,7.97
2018-09-24T13:20:08.275Z,6.17
2018-09-24T13:22:48.993Z,9.37
2018-09-24T13:25:29.559Z,14.87
2018-09-24T13:28:10.394Z,8.80
2018-09-24T13:30:52.868Z,17.03
2018-09-24T13:33:34.547Z,9.70
2018-09-24T13:36:16.964Z,5.53
2018-09-24T13:38:59.777Z,7.43
2018-09-24T13:41:40.940Z,10.73
2018-09-24T13:44:21.657Z,10.67
2018-09-24T13:47:02.952Z,9.53
2018-09-24T13:49:43.365Z,16.33
2018-09-24T13:52:23.676Z,12.07
2018-09-24T13:55:04.161Z,9.13
2018-09-24T13:57:44.651Z,7.30
2018-09-24T14:00:26.156Z,8.67
2018-09-24T14:03:07.174Z,10.03
2018-09-24T14:05:47.704Z,11.10
2018-09-24T14:08:28.285Z,8.50
2018-09-24T14:11:08.881Z,8.33
2018-09-24T14:13:49.678Z,6.20
2018-09-24T14:16:31.181Z,9.97
2018-09-24T14:19:11.827Z,6.03
2018-09-24T14:21:51.934Z,14.53
2018-09-24T14:24:32.844Z,6.70
2018-09-24T14:27:13.641Z,11.03
2018-09-24T14:29:54.670Z,10.33
2018-09-24T14:32:35.460Z,7.43
2018-09-24T14:35:16.252Z,11.23
2018-09-24T14:37:56.755Z,9.63
2018-09-24T14:40:37.450Z,11.10
2018-09-24T14:43:18.055Z,10.57
2018-09-24T14:45:59.494Z,8.60
2018-09-24T14:48:40.324Z,10.20
2018-09-24T14:51:21.373Z,11.27
2018-09-24T14:54:03.339Z,10.30
2018-09-24T14:56:44.447Z,3.43
2018-09-24T14:59:24.720Z,6.77
2018-09-24T15:02:05.521Z,7.73
2018-09-24T15:04:45.630Z,6.93
2018-09-24T15:07:26.058Z,9.00
2018-09-24T15:10:07.029Z,8.70
2018-09-24T15:12:47.797Z,5.60
2018-09-24T15:15:28.712Z,7.73
2018-09-24T15:18:09.539Z,12.93
2018-09-24T15:20:49.704Z,9.13
2018-09-24T15:23:30.944Z,7.93
2018-09-24T15:26:11.690Z,11.83
2018-09-24T15:28:52.431Z,10.80
2018-09-24T15:31:33.053Z,13.57
2018-09-24T15:34:14.013Z,8.00
2018-09-24T15:36:54.662Z,13.40
2018-09-24T15:39:34.939Z,17.43
2018-09-24T15:42:15.407Z,14.30
2018-09-24T15:44:56.261Z,11.43
2018-09-24T15:47:36.853Z,8.83
2018-09-24T15:50:17.807Z,8.87
2018-09-24T15:52:59.206Z,8.23
2018-09-24T15:55:39.917Z,12.33
2018-09-24T15:58:20.484Z,10.67
2018-09-24T16:01:00.669Z,8.17
2018-09-24T16:03:41.249Z,12.10
2018-09-24T16:06:21.684Z,11.17
2018-09-24T16:09:02.539Z,16.30
2018-09-24T16:11:42.925Z,7.13
2018-09-24T16:14:23.358Z,16.47
2018-09-24T16:17:04.198Z,14.70
2018-09-24T16:19:44.780Z,12.00
2018-09-24T16:22:25.214Z,10.20
2018-09-24T16:25:05.448Z,10.03
2018-09-24T16:27:46.360Z,9.50
2018-09-24T16:30:26.958Z,15.70
2018-09-24T16:33:09.033Z,10.13
2018-09-24T16:35:50.291Z,9.00
2018-09-24T16:38:32.062Z,15.40
2018-09-24T16:41:12.185Z,11.10
2018-09-24T16:43:53.025Z,13.60
2018-09-24T16:46:34.489Z,14.20
2018-09-24T16:49:15.034Z,16.57
2018-09-24T16:51:55.360Z,12.87
2018-09-24T16:54:36.212Z,15.90
2018-09-24T16:57:16.987Z,14.90
2018-09-24T16:59:57.965Z,11.17
2018-09-24T17:02:38.961Z,14.10
2018-09-24T17:05:19.580Z,20.20
2018-09-24T17:07:59.865Z,8.17
2018-09-24T17:10:40.829Z,13.73
2018-09-24T17:13:21.312Z,11.17
2018-09-24T17:16:01.681Z,16.60
2018-09-24T17:18:42.329Z,15.17
2018-09-24T17:21:23.134Z,14.23
2018-09-24T17:24:03.634Z,15.63
2018-09-24T17:26:43.988Z,16.87
2018-09-24T17:29:24.559Z,17.30
2018-09-24T17:32:05.437Z,13.50
2018-09-24T17:34:45.401Z,13.77
2018-09-24T17:37:26.308Z,17.33
2018-09-24T17:40:06.925Z,17.53
2018-09-24T17:42:47.814Z,10.50
2018-09-24T17:45:28.032Z,21.37
2018-09-24T17:48:08.843Z,13.03
2018-09-24T17:50:49.715Z,21.00
2018-09-24T17:53:29.881Z,12.67
2018-09-24T17:56:10.289Z,11.73
2018-09-24T17:58:51.205Z,21.50
2018-09-24T18:01:32.161Z,13.87
2018-09-24T18:04:13.104Z,18.00
2018-09-24T18:06:55.546Z,13.30
2018-09-24T18:09:36.933Z,14.13
2018-09-24T18:12:17.827Z,13.93
2018-09-24T18:14:58.452Z,18.67
2018-09-24T18:17:38.971Z,21.07
2018-09-24T18:20:20.286Z,18.10
2018-09-24T18:23:01.136Z,16.83
2018-09-24T18:25:41.815Z,12.07
2018-09-24T18:28:22.193Z,9.30
2018-09-24T18:31:02.597Z,20.57
2018-09-24T18:33:43.243Z,23.53
2018-09-24T18:36:24.013Z,17.40
2018-09-24T18:39:04.771Z,10.83
2018-09-24T18:41:45.031Z,19.20
2018-09-24T18:44:25.946Z,15.30
2018-09-24T18:47:06.831Z,11.60
2018-09-24T18:49:47.981Z,18.47
2018-09-24T18:52:29.328Z,12.43
2018-09-24T18:55:09.316Z,14.53
2018-09-24T18:57:49.938Z,13.27
2018-09-24T19:00:30.412Z,13.60
2018-09-24T19:03:10.805Z,22.80
2018-09-24T19:05:51.486Z,17.27
2018-09-24T19:08:32.157Z,10.10
2018-09-24T19:11:13.395Z,21.07
2018-09-24T19:13:54.277Z,19.10
2018-09-24T19:16:34.954Z,9.43
2018-09-24T19:19:15.922Z,8.60
2018-09-24T19:21:56.406Z,12.33
2018-09-24T19:24:36.682Z,11.17
2018-09-24T19:27:17.797Z,16.57
2018-09-24T19:29:58.723Z,18.60
2018-09-24T19:32:39.989Z,14.73
2018-09-24T19:35:20.183Z,12.40
2018-09-24T19:38:00.676Z,16.53
2018-09-24T19:40:41.648Z,10.50
2018-09-24T19:43:23.623Z,10.67
2018-09-24T19:46:04.247Z,12.43
2018-09-24T19:48:45.336Z,16.40
2018-09-24T19:51:25.466Z,12.83
2018-09-24T19:54:06.660Z,8.33
2018-09-24T19:56:48.119Z,8.87
2018-09-24T19:59:28.805Z,7.83
2018-09-24T20:02:10.400Z,23.73
2018-09-24T20:04:52.361Z,11.73
2018-09-24T20:07:33.532Z,12.90
2018-09-24T20:10:14.380Z,14.10
2018-09-24T20:12:55.804Z,9.27
2018-09-24T20:15:36.547Z,14.03
2018-09-24T20:18:17.405Z,7.87
2018-09-24T20:20:58.456Z,12.00
2018-09-24T20:23:38.683Z,17.70
2018-09-24T20:26:19.421Z,9.60
2018-09-24T20:28:59.629Z,9.80
2018-09-24T20:31:40.508Z,7.43
2018-09-24T20:34:21.299Z,20.77
2018-09-24T20:37:02.204Z,7.40
2018-09-24T20:39:42.231Z,11.47
2018-09-24T20:42:22.519Z,11.00
2018-09-24T20:45:03.313Z,10.73
2018-09-24T20:47:43.574Z,8.50
2018-09-24T20:50:24.869Z,9.63
2018-09-24T20:53:05.000Z,9.43
2018-09-24T20:55:45.873Z,13.40
2018-09-24T20:58:26.302Z,5.63
2018-09-24T21:01:07.017Z,13.33
2018-09-24T21:03:47.749Z,12.30
2018-09-24T21:06:29.028Z,9.57
2018-09-24T21:09:09.657Z,10.73
2018-09-24T21:11:50.487Z,7.00
2018-09-24T21:14:30.755Z,11.50
2018-09-24T21:17:11.878Z,4.80
2018-09-24T21:19:53.069Z,4.87
2018-09-24T21:22:33.827Z,4.70
2018-09-24T21:25:14.255Z,12.70
2018-09-24T21:27:54.303Z,7.30
2018-09-24T21:30:35.428Z,11.00
2018-09-24T21:33:16.112Z,6.50
2018-09-24T21:35:56.801Z,8.90
2018-09-24T21:38:37.230Z,8.47
2018-09-24T21:41:18.425Z,5.73
2018-09-24T21:43:58.972Z,7.70
2018-09-24T21:46:39.627Z,17.17
2018-09-24T21:49:20.457Z,5.13
2018-09-24T21:52:00.845Z,5.53
2018-09-24T21:54:41.824Z,9.03
2018-09-24T21:57:24.103Z,13.93
2018-09-24T22:00:04.761Z,8.17
2018-09-24T22:02:45.487Z,6.73
2018-09-24T22:05:25.966Z,8.87
2018-09-24T22:08:06.206Z,10.53
2018-09-24T22:10:46.564Z,4.40
2018-09-24T22:13:27.644Z,10.53
2018-09-24T22:16:08.559Z,4.60
2018-09-24T22:18:49.406Z,9.70
2018-09-24T22:21:29.851Z,6.77
2018-09-24T22:24:10.936Z,8.50
2018-09-24T22:26:51.830Z,6.17
2018-09-24T22:29:31.967Z,12.90
2018-09-24T22:32:13.059Z,6.60
2018-09-24T22:34:53.029Z,3.07
2018-09-24T22:37:34.184Z,4.20
2018-09-24T22:40:14.889Z,2.87
2018-09-24T22:42:55.171Z,9.93
2018-09-24T22:45:35.737Z,7.37
2018-09-24T22:48:16.646Z,6.47
2018-09-24T22:50:56.941Z,8.77
2018-09-24T22:53:37.827Z,6.73
2018-09-24T22:56:18.522Z,8.37
2018-09-24T22:58:58.775Z,4.07
2018-09-24T23:01:39.698Z,5.33
2018-09-24T23:04:20.428Z,4.03
2018-09-24T23:07:00.551Z,10.43
2018-09-24T23:09:41.401Z,5.20
2018-09-24T23:12:21.532Z,7.10
2018-09-24T23:15:02.391Z,4.13
2018-09-24T23:17:42.828Z,6.53
2018-09-24T23:20:23.041Z,7.80
2018-09-24T23:23:04.305Z,6.73
2018-09-24T23:25:44.532Z,4.73
2018-09-24T23:28:24.965Z,3.77
2018-09-24T23:31:05.369Z,4.70
2018-09-24T23:33:46.897Z,5.23
2018-09-24T23:36:27.953Z,5.53
2018-09-24T23:39:08.743Z,4.10
2018-09-24T23:41:49.169Z,11.37
2018-09-24T23:44:29.488Z,3.43
2018-09-24T23:47:10.477Z,9.17
2018-09-24T23:49:50.592Z,6.47
2018-09-24T23:52:31.785Z,11.53
2018-09-24T23:55:12.940Z,6.93
2018-09-24T23:57:53.317Z,9.00
